• Join FlightAware (Why Join?)
  • Login
  • US Flag 
09:02PM EDT


 

Airport Tracker/Info


-or-


 

Live Flight TrackerFlight Track Log ✈ ASQ4633 ✈ 17-Jun-2013 ✈ KSLC - KDEN

Flight Track Log - Related Links

Times and Time Zones

All times are in EDT time to prevent confusion due to time zone crossing. See the ASQ4633 flight status page for this flight to view local times or setup timezone preferences in your user account.

Time Position Orientation Groundspeed Altitude Reporting Facility
EDT Latitude Longitude Course Direction KTS MPH feet Rate Location/Type
07:46PM 40.8067 -111.9794 146° Southeast 194 223 4,800  Level Salt Lake Center
07:47PM 40.8506 -111.9842 355° North 202 232 6,300 1,800 Climbing Salt Lake Center
07:48PM 40.9269 -111.9939 355° North 235 270 8,400 1,860 Climbing Salt Lake Center
07:49PM 41.1333 -111.8683 90° East  Level FlightAware Approximate
07:49PM 41.0044 -112.0039 354° North 278 320 10,400  Level Salt Lake Center
07:50PM 41.0951 -111.7559 159° South  Level FlightAware Approximate
07:50PM 41.0847 -112.0000 North 290 334 12,700  Level Salt Lake Center
07:51PM 41.0072 -111.6814 146° Southeast  Level FlightAware Approximate
07:51PM 41.0925 -111.9056 84° East 290 334 14,900  Level Salt Lake Center
07:52PM 41.0400 -111.8203 129° Southeast 285 328 17,500 2,040 Climbing Salt Lake Center
07:53PM 41.0197 -111.7089 104° East 309 356 19,200 1,560 Climbing Salt Lake Center
07:54PM 41.0008 -111.5900 102° East 329 379 20,700 1,500 Climbing Salt Lake Center
07:55PM 40.9808 -111.4636 102° East 350 403 22,300 1,440 Climbing Salt Lake Center
07:56PM 40.9594 -111.3319 102° East 366 421 23,700 1,380 Climbing Salt Lake Center
07:57PM 40.9367 -111.1967 103° East 376 433 25,200 1,560 Climbing Salt Lake Center
07:58PM 40.9086 -111.0297 102° East 388 447 27,000 1,380 Climbing Salt Lake Center
07:59PM 40.8992 -110.8842 95° East 396 456 28,100 1,020 Climbing Salt Lake Center
08:00PM 40.8881 -110.7353 96° East 407 468 29,100 960 Climbing Salt Lake Center
08:01PM 40.8750 -110.5756 96° East 419 482 30,100 960 Climbing Salt Lake Center
08:02PM 40.8461 -110.4303 105° East 426 490 31,100 1,020 Climbing Salt Lake Center
08:03PM 40.8011 -110.2639 110° East 433 498 32,200 960 Climbing Salt Lake Center
08:04PM 40.7625 -110.1239 110° East 440 506 33,100 960 Climbing Salt Lake Center
08:05PM 40.7350 -109.9458 101° East 447 514 34,200 900 Climbing Salt Lake Center
08:06PM 40.7247 -109.7903 95° East 446 513 35,000 360 Climbing Salt Lake Center
08:07PM 40.7100 -109.6028 96° East 459 528 35,000  Level Salt Lake Center
08:08PM 40.6981 -109.4350 95° East 475 547 35,000  Level Salt Lake Center
08:09PM 40.6842 -109.2394 95° East 479 551 35,000  Level Salt Lake Center
08:10PM 40.6706 -109.0778 96° East 473 544 35,000  Level Salt Lake Center
08:11PM 40.6656 -108.9939 94° East 463 533 35,000  Level Denver Center
08:12PM 40.6525 -108.8367 96° East 452 520 35,000  Level Denver Center
08:13PM 40.6397 -108.6500 95° East 455 524 35,000  Level Denver Center
08:14PM 40.6275 -108.4867 96° East 465 535 35,000  Level Denver Center
08:15PM 40.6125 -108.2908 96° East 478 550 35,000  Level Denver Center
08:16PM 40.5992 -108.1222 96° East 482 555 35,000  Level Denver Center
08:17PM 40.5839 -107.9261 96° East 480 552 35,000  Level Denver Center
08:18PM 40.5703 -107.7608 96° East 476 548 35,000  Level Denver Center
08:19PM 40.5544 -107.5683 96° East 475 547 35,000  Level Denver Center
08:20PM 40.5406 -107.4011 96° East 478 550 35,000  Level Denver Center
08:21PM 40.5253 -107.2347 97° East 479 551 35,000  Level Denver Center
08:22PM 40.5094 -107.0386 96° East 478 550 35,000  Level Denver Center
08:23PM 40.4928 -106.8642 97° East 479 551 35,000  Level Denver Center
08:24PM 40.4781 -106.6889 96° East 480 552 35,000  Level Denver Center
08:25PM 40.4633 -106.5156 96° East 477 549 35,000 -720 Level Denver Center
08:26PM 40.4439 -106.3206 97° East 476 548 33,600 -2,160 Descending Denver Center
08:27PM 40.4278 -106.1528 97° East 458 527 30,600 -3,120 Descending Denver Center
08:28PM 40.4125 -105.9906 97° East 450 518 27,200 -3,060 Descending Denver Center
08:29PM 40.3981 -105.8333 97° East 438 504 24,300 -2,460 Descending Denver Center
08:30PM 40.3817 -105.6772 98° East 433 498 22,200 -2,100 Descending Denver Center
08:32PM 40.3667 -105.5331 98° East 407 468 20,000 -2,160 Descending Denver Center
08:33PM 40.3481 -105.3833 99° East 364 419 17,800 -1,800 Descending Denver Center
08:34PM 40.3328 -105.2631 99° East 337 388 16,300 -1,680 Descending Denver Center
08:35PM 40.3156 -105.1392 100° East 325 374 14,400 -1,500 Descending Denver Center
08:36PM 40.3056 -105.0289 97° East 308 354 13,200 -1,140 Descending Denver Center
08:37PM 40.3044 -104.9194 91° East 283 326 12,100 -1,080 Descending Denver Center
08:38PM 40.2994 -104.8244 94° East 269 310 11,000 -1,260 Descending Denver Center
08:39PM 40.2408 -104.7819 151° Southeast 241 277 9,600 -960 Descending Denver Center
08:40PM 40.1750 -104.7422 155° Southeast 237 273 9,100 -360 Descending Denver Center
08:41PM 40.1147 -104.7083 157° South 241 277 8,900 -540 Descending Denver Center
08:42PM 40.0483 -104.6947 171° South 225 259 8,100 -900 Descending Denver Center
08:43PM 39.9864 -104.6950 180° South 222 255 7,100 -1,020 Descending Denver Center